sensor_id;sensor_type;location;lat;lon;timestamp;temperature;humidity
8261;DHT22;64115;50.170;8.242;2023-04-15T00:01:08;5.50;99.90
8261;DHT22;64115;50.170;8.242;2023-04-15T00:03:36;5.40;99.90
8261;DHT22;64115;50.170;8.242;2023-04-15T00:06:03;5.30;99.90
8261;DHT22;64115;50.170;8.242;2023-04-15T00:08:31;5.30;99.90
8261;DHT22;64115;50.170;8.242;2023-04-15T00:10:59;5.20;99.90
8261;DHT22;64115;50.170;8.242;2023-04-15T00:13:30;5.10;99.90
8261;DHT22;64115;50.170;8.242;2023-04-15T00:15:57;5.00;99.90
8261;DHT22;64115;50.170;8.242;2023-04-15T00:18:24;5.00;99.90
8261;DHT22;64115;50.170;8.242;2023-04-15T00:20:52;5.00;99.90
8261;DHT22;64115;50.170;8.242;2023-04-15T00:23:19;5.00;99.90
8261;DHT22;64115;50.170;8.242;2023-04-15T00:25:48;5.00;99.90
8261;DHT22;64115;50.170;8.242;2023-04-15T00:28:15;4.90;99.90
8261;DHT22;64115;50.170;8.242;2023-04-15T00:30:43;4.90;99.90
8261;DHT22;64115;50.170;8.242;2023-04-15T00:33:11;4.90;99.90
8261;DHT22;64115;50.170;8.242;2023-04-15T00:35:38;4.80;99.90
8261;DHT22;64115;50.170;8.242;2023-04-15T00:38:05;4.80;99.90
8261;DHT22;64115;50.170;8.242;2023-04-15T00:40:33;4.80;99.90
8261;DHT22;64115;50.170;8.242;2023-04-15T00:43:01;4.80;99.90
8261;DHT22;64115;50.170;8.242;2023-04-15T00:45:28;4.80;99.90
8261;DHT22;64115;50.170;8.242;2023-04-15T00:47:56;4.70;99.90
8261;DHT22;64115;50.170;8.242;2023-04-15T00:50:24;4.70;99.90
8261;DHT22;64115;50.170;8.242;2023-04-15T00:52:51;4.70;99.90
8261;DHT22;64115;50.170;8.242;2023-04-15T00:55:18;4.80;99.90
8261;DHT22;64115;50.170;8.242;2023-04-15T00:57:45;4.80;99.90
8261;DHT22;64115;50.170;8.242;2023-04-15T01:00:14;4.80;99.90
8261;DHT22;64115;50.170;8.242;2023-04-15T01:02:42;4.90;99.90
8261;DHT22;64115;50.170;8.242;2023-04-15T01:05:10;5.10;99.90
8261;DHT22;64115;50.170;8.242;2023-04-15T01:07:37;5.10;99.90
8261;DHT22;64115;50.170;8.242;2023-04-15T01:10:05;5.10;99.90
8261;DHT22;64115;50.170;8.242;2023-04-15T01:12:32;4.90;99.90
8261;DHT22;64115;50.170;8.242;2023-04-15T01:15:01;4.80;99.90
8261;DHT22;64115;50.170;8.242;2023-04-15T01:17:29;4.80;99.90
8261;DHT22;64115;50.170;8.242;2023-04-15T01:19:56;4.70;99.90
8261;DHT22;64115;50.170;8.242;2023-04-15T01:22:24;4.70;99.90
8261;DHT22;64115;50.170;8.242;2023-04-15T01:24:56;4.60;99.90
8261;DHT22;64115;50.170;8.242;2023-04-15T01:27:28;4.60;99.90
8261;DHT22;64115;50.170;8.242;2023-04-15T01:29:55;4.50;99.90
8261;DHT22;64115;50.170;8.242;2023-04-15T01:32:23;4.50;99.90
8261;DHT22;64115;50.170;8.242;2023-04-15T01:34:50;4.50;99.90
8261;DHT22;64115;50.170;8.242;2023-04-15T01:37:17;4.50;99.90
8261;DHT22;64115;50.170;8.242;2023-04-15T01:39:44;4.60;99.90
8261;DHT22;64115;50.170;8.242;2023-04-15T01:42:11;4.60;99.90
8261;DHT22;64115;50.170;8.242;2023-04-15T01:44:40;4.60;99.90
8261;DHT22;64115;50.170;8.242;2023-04-15T01:47:07;4.60;99.90
8261;DHT22;64115;50.170;8.242;2023-04-15T01:49:34;4.50;99.90
8261;DHT22;64115;50.170;8.242;2023-04-15T01:52:01;4.40;99.90
8261;DHT22;64115;50.170;8.242;2023-04-15T01:54:28;4.30;99.90
8261;DHT22;64115;50.170;8.242;2023-04-15T01:56:56;4.20;99.90
8261;DHT22;64115;50.170;8.242;2023-04-15T01:59:23;4.20;99.90
8261;DHT22;64115;50.170;8.242;2023-04-15T02:01:52;4.10;99.90
8261;DHT22;64115;50.170;8.242;2023-04-15T02:04:19;4.00;99.90
8261;DHT22;64115;50.170;8.242;2023-04-15T02:06:46;4.00;99.90
8261;DHT22;64115;50.170;8.242;2023-04-15T02:09:14;4.00;99.90
8261;DHT22;64115;50.170;8.242;2023-04-15T02:11:41;4.00;99.90
8261;DHT22;64115;50.170;8.242;2023-04-15T02:14:08;4.00;99.90
8261;DHT22;64115;50.170;8.242;2023-04-15T02:16:35;4.10;99.90
8261;DHT22;64115;50.170;8.242;2023-04-15T02:19:03;4.10;99.90
8261;DHT22;64115;50.170;8.242;2023-04-15T02:21:30;4.00;99.90
8261;DHT22;64115;50.170;8.242;2023-04-15T02:23:57;4.00;99.90
8261;DHT22;64115;50.170;8.242;2023-04-15T02:26:25;4.00;99.90
8261;DHT22;64115;50.170;8.242;2023-04-15T02:28:53;3.90;99.90
8261;DHT22;64115;50.170;8.242;2023-04-15T02:31:20;3.90;99.90
8261;DHT22;64115;50.170;8.242;2023-04-15T02:33:47;3.90;99.90
8261;DHT22;64115;50.170;8.242;2023-04-15T02:36:16;3.90;99.90
8261;DHT22;64115;50.170;8.242;2023-04-15T02:38:43;3.80;99.90
8261;DHT22;64115;50.170;8.242;2023-04-15T02:41:10;3.80;99.90
8261;DHT22;64115;50.170;8.242;2023-04-15T02:43:38;3.70;99.90
8261;DHT22;64115;50.170;8.242;2023-04-15T02:46:05;3.70;99.90
8261;DHT22;64115;50.170;8.242;2023-04-15T02:48:32;3.60;99.90
8261;DHT22;64115;50.170;8.242;2023-04-15T02:51:17;3.50;99.90
8261;DHT22;64115;50.170;8.242;2023-04-15T02:53:45;3.50;99.90
8261;DHT22;64115;50.170;8.242;2023-04-15T02:56:13;3.40;99.90
8261;DHT22;64115;50.170;8.242;2023-04-15T02:58:42;3.50;99.90
8261;DHT22;64115;50.170;8.242;2023-04-15T03:01:10;3.40;99.90
8261;DHT22;64115;50.170;8.242;2023-04-15T03:03:38;3.40;99.90
8261;DHT22;64115;50.170;8.242;2023-04-15T03:06:05;3.40;99.90
8261;DHT22;64115;50.170;8.242;2023-04-15T03:08:34;3.40;99.90
8261;DHT22;64115;50.170;8.242;2023-04-15T03:11:01;3.40;99.90
8261;DHT22;64115;50.170;8.242;2023-04-15T03:13:29;3.40;99.90
8261;DHT22;64115;50.170;8.242;2023-04-15T03:15:56;3.50;99.90
8261;DHT22;64115;50.170;8.242;2023-04-15T03:18:23;3.50;99.90
8261;DHT22;64115;50.170;8.242;2023-04-15T03:20:50;3.40;99.90
8261;DHT22;64115;50.170;8.242;2023-04-15T03:23:17;3.40;99.90
8261;DHT22;64115;50.170;8.242;2023-04-15T03:25:45;3.40;99.90
8261;DHT22;64115;50.170;8.242;2023-04-15T03:28:13;3.40;99.90
8261;DHT22;64115;50.170;8.242;2023-04-15T03:30:40;3.30;99.90
8261;DHT22;64115;50.170;8.242;2023-04-15T03:33:07;3.30;99.90
8261;DHT22;64115;50.170;8.242;2023-04-15T03:35:34;3.30;99.90
8261;DHT22;64115;50.170;8.242;2023-04-15T03:38:01;3.30;99.90
8261;DHT22;64115;50.170;8.242;2023-04-15T03:40:28;3.20;99.90
8261;DHT22;64115;50.170;8.242;2023-04-15T03:42:57;3.20;99.90
8261;DHT22;64115;50.170;8.242;2023-04-15T03:45:24;3.20;99.90
8261;DHT22;64115;50.170;8.242;2023-04-15T03:47:51;3.20;99.90
8261;DHT22;64115;50.170;8.242;2023-04-15T03:50:18;3.20;99.90
8261;DHT22;64115;50.170;8.242;2023-04-15T03:52:45;3.20;99.90
8261;DHT22;64115;50.170;8.242;2023-04-15T03:55:12;3.20;99.90
8261;DHT22;64115;50.170;8.242;2023-04-15T03:57:40;3.20;99.90
8261;DHT22;64115;50.170;8.242;2023-04-15T04:00:10;3.20;99.90
8261;DHT22;64115;50.170;8.242;2023-04-15T04:02:37;3.20;99.90
8261;DHT22;64115;50.170;8.242;2023-04-15T04:05:05;3.30;99.90
8261;DHT22;64115;50.170;8.242;2023-04-15T04:07:32;3.30;99.90
8261;DHT22;64115;50.170;8.242;2023-04-15T04:09:59;3.30;99.90
8261;DHT22;64115;50.170;8.242;2023-04-15T04:12:28;3.40;99.90
8261;DHT22;64115;50.170;8.242;2023-04-15T04:14:55;3.40;99.90
8261;DHT22;64115;50.170;8.242;2023-04-15T04:17:23;3.50;99.90
8261;DHT22;64115;50.170;8.242;2023-04-15T04:19:51;3.40;99.90
8261;DHT22;64115;50.170;8.242;2023-04-15T04:22:21;3.40;99.90
8261;DHT22;64115;50.170;8.242;2023-04-15T04:24:48;3.40;99.90
8261;DHT22;64115;50.170;8.242;2023-04-15T04:27:15;3.50;99.90
8261;DHT22;64115;50.170;8.242;2023-04-15T04:29:42;3.40;99.90
8261;DHT22;64115;50.170;8.242;2023-04-15T04:32:12;3.20;99.90
8261;DHT22;64115;50.170;8.242;2023-04-15T04:34:40;3.00;99.90
8261;DHT22;64115;50.170;8.242;2023-04-15T04:37:07;2.80;99.90
8261;DHT22;64115;50.170;8.242;2023-04-15T04:39:34;2.70;99.90
8261;DHT22;64115;50.170;8.242;2023-04-15T04:42:01;2.60;99.90
8261;DHT22;64115;50.170;8.242;2023-04-15T04:44:29;2.50;99.90
8261;DHT22;64115;50.170;8.242;2023-04-15T04:46:56;2.40;99.90
8261;DHT22;64115;50.170;8.242;2023-04-15T04:49:23;2.40;99.90
8261;DHT22;64115;50.170;8.242;2023-04-15T04:51:51;2.30;99.90
8261;DHT22;64115;50.170;8.242;2023-04-15T04:54:19;2.30;99.90
8261;DHT22;64115;50.170;8.242;2023-04-15T04:56:46;2.20;99.90
8261;DHT22;64115;50.170;8.242;2023-04-15T04:59:13;2.20;99.90
8261;DHT22;64115;50.170;8.242;2023-04-15T05:01:40;2.20;99.90
8261;DHT22;64115;50.170;8.242;2023-04-15T05:04:07;2.20;99.90
8261;DHT22;64115;50.170;8.242;2023-04-15T05:06:34;2.30;99.90
8261;DHT22;64115;50.170;8.242;2023-04-15T05:09:03;2.40;99.90
8261;DHT22;64115;50.170;8.242;2023-04-15T05:11:30;2.50;99.90
8261;DHT22;64115;50.170;8.242;2023-04-15T05:13:57;2.50;99.90
8261;DHT22;64115;50.170;8.242;2023-04-15T05:16:26;2.50;99.90
8261;DHT22;64115;50.170;8.242;2023-04-15T05:18:53;2.60;99.90
8261;DHT22;64115;50.170;8.242;2023-04-15T05:21:20;2.70;99.90
8261;DHT22;64115;50.170;8.242;2023-04-15T05:23:47;2.80;99.90
8261;DHT22;64115;50.170;8.242;2023-04-15T05:26:16;3.00;99.90
8261;DHT22;64115;50.170;8.242;2023-04-15T05:28:43;3.10;99.90
8261;DHT22;64115;50.170;8.242;2023-04-15T05:31:10;3.20;99.90
8261;DHT22;64115;50.170;8.242;2023-04-15T05:33:37;3.30;99.90
8261;DHT22;64115;50.170;8.242;2023-04-15T05:36:05;3.40;99.90
8261;DHT22;64115;50.170;8.242;2023-04-15T05:38:32;3.50;99.90
8261;DHT22;64115;50.170;8.242;2023-04-15T05:40:59;3.60;99.90
8261;DHT22;64115;50.170;8.242;2023-04-15T05:43:28;3.70;99.90
8261;DHT22;64115;50.170;8.242;2023-04-15T05:45:55;3.80;99.90
8261;DHT22;64115;50.170;8.242;2023-04-15T05:48:23;3.90;99.90
8261;DHT22;64115;50.170;8.242;2023-04-15T05:50:50;4.00;99.90
8261;DHT22;64115;50.170;8.242;2023-04-15T05:53:17;4.20;99.90
8261;DHT22;64115;50.170;8.242;2023-04-15T05:55:44;4.30;99.90
8261;DHT22;64115;50.170;8.242;2023-04-15T05:58:11;4.40;99.90
8261;DHT22;64115;50.170;8.242;2023-04-15T06:00:39;4.50;99.90
8261;DHT22;64115;50.170;8.242;2023-04-15T06:03:07;4.60;99.90
8261;DHT22;64115;50.170;8.242;2023-04-15T06:05:34;4.80;99.90
8261;DHT22;64115;50.170;8.242;2023-04-15T06:08:01;4.90;99.90
8261;DHT22;64115;50.170;8.242;2023-04-15T06:10:28;5.00;99.90
8261;DHT22;64115;50.170;8.242;2023-04-15T06:12:55;5.10;99.90
8261;DHT22;64115;50.170;8.242;2023-04-15T06:15:22;5.20;99.90
8261;DHT22;64115;50.170;8.242;2023-04-15T06:17:51;5.30;99.90
8261;DHT22;64115;50.170;8.242;2023-04-15T06:20:17;5.40;99.90
8261;DHT22;64115;50.170;8.242;2023-04-15T06:22:44;5.50;99.90
8261;DHT22;64115;50.170;8.242;2023-04-15T06:25:11;5.60;99.90
8261;DHT22;64115;50.170;8.242;2023-04-15T06:27:38;5.70;99.90
8261;DHT22;64115;50.170;8.242;2023-04-15T06:30:07;5.80;99.90
8261;DHT22;64115;50.170;8.242;2023-04-15T06:32:37;5.90;99.90
8261;DHT22;64115;50.170;8.242;2023-04-15T06:35:06;6.10;99.90
8261;DHT22;64115;50.170;8.242;2023-04-15T06:37:33;6.30;99.90
8261;DHT22;64115;50.170;8.242;2023-04-15T06:40:00;6.40;99.90
8261;DHT22;64115;50.170;8.242;2023-04-15T06:42:29;6.50;99.90
8261;DHT22;64115;50.170;8.242;2023-04-15T06:44:56;6.50;99.90
8261;DHT22;64115;50.170;8.242;2023-04-15T06:47:24;6.70;99.90
8261;DHT22;64115;50.170;8.242;2023-04-15T06:49:51;6.90;99.90
8261;DHT22;64115;50.170;8.242;2023-04-15T06:52:19;7.10;99.90
8261;DHT22;64115;50.170;8.242;2023-04-15T06:54:47;7.40;99.90
8261;DHT22;64115;50.170;8.242;2023-04-15T06:57:14;7.60;99.90
8261;DHT22;64115;50.170;8.242;2023-04-15T06:59:41;7.80;99.90
8261;DHT22;64115;50.170;8.242;2023-04-15T07:02:11;7.90;99.90
8261;DHT22;64115;50.170;8.242;2023-04-15T07:04:38;8.10;99.90
8261;DHT22;64115;50.170;8.242;2023-04-15T07:07:05;8.20;99.90
8261;DHT22;64115;50.170;8.242;2023-04-15T07:09:34;8.40;99.90
8261;DHT22;64115;50.170;8.242;2023-04-15T07:12:01;8.40;99.90
8261;DHT22;64115;50.170;8.242;2023-04-15T07:14:29;8.70;99.90
8261;DHT22;64115;50.170;8.242;2023-04-15T07:16:56;8.80;99.90
8261;DHT22;64115;50.170;8.242;2023-04-15T07:19:23;9.10;99.90
8261;DHT22;64115;50.170;8.242;2023-04-15T07:21:50;9.00;99.90
8261;DHT22;64115;50.170;8.242;2023-04-15T07:24:17;8.90;99.90
8261;DHT22;64115;50.170;8.242;2023-04-15T07:26:46;8.80;99.90
8261;DHT22;64115;50.170;8.242;2023-04-15T07:29:13;8.80;99.90
8261;DHT22;64115;50.170;8.242;2023-04-15T07:31:40;8.80;99.90
8261;DHT22;64115;50.170;8.242;2023-04-15T07:34:07;8.60;99.90
8261;DHT22;64115;50.170;8.242;2023-04-15T07:36:35;8.50;99.90
8261;DHT22;64115;50.170;8.242;2023-04-15T07:39:02;8.70;99.90
8261;DHT22;64115;50.170;8.242;2023-04-15T07:41:30;8.80;99.90
8261;DHT22;64115;50.170;8.242;2023-04-15T07:43:59;8.90;99.90
8261;DHT22;64115;50.170;8.242;2023-04-15T07:46:26;8.90;99.90
8261;DHT22;64115;50.170;8.242;2023-04-15T07:48:53;8.90;99.90
8261;DHT22;64115;50.170;8.242;2023-04-15T07:51:20;9.00;99.90
8261;DHT22;64115;50.170;8.242;2023-04-15T07:53:48;9.00;99.90
8261;DHT22;64115;50.170;8.242;2023-04-15T07:56:15;9.00;99.90
8261;DHT22;64115;50.170;8.242;2023-04-15T07:58:42;9.10;99.90
8261;DHT22;64115;50.170;8.242;2023-04-15T08:01:11;9.10;99.90
8261;DHT22;64115;50.170;8.242;2023-04-15T08:03:39;9.20;99.90
8261;DHT22;64115;50.170;8.242;2023-04-15T08:06:06;9.30;99.90
8261;DHT22;64115;50.170;8.242;2023-04-15T08:08:34;9.50;99.90
8261;DHT22;64115;50.170;8.242;2023-04-15T08:11:01;9.60;99.90
8261;DHT22;64115;50.170;8.242;2023-04-15T08:13:28;9.70;99.90
8261;DHT22;64115;50.170;8.242;2023-04-15T08:16:16;9.90;99.90
8261;DHT22;64115;50.170;8.242;2023-04-15T08:18:43;10.20;99.90
8261;DHT22;64115;50.170;8.242;2023-04-15T08:21:11;10.40;99.90
8261;DHT22;64115;50.170;8.242;2023-04-15T08:23:38;10.30;99.90
8261;DHT22;64115;50.170;8.242;2023-04-15T08:26:06;10.20;99.90
8261;DHT22;64115;50.170;8.242;2023-04-15T08:28:33;9.70;99.90
8261;DHT22;64115;50.170;8.242;2023-04-15T08:31:00;9.40;99.90
8261;DHT22;64115;50.170;8.242;2023-04-15T08:33:28;9.40;99.90
8261;DHT22;64115;50.170;8.242;2023-04-15T08:35:55;9.40;99.90
8261;DHT22;64115;50.170;8.242;2023-04-15T08:38:23;9.60;99.90
8261;DHT22;64115;50.170;8.242;2023-04-15T08:40:50;9.90;99.90
8261;DHT22;64115;50.170;8.242;2023-04-15T08:43:20;10.30;99.90
8261;DHT22;64115;50.170;8.242;2023-04-15T08:45:49;10.70;99.90
8261;DHT22;64115;50.170;8.242;2023-04-15T08:48:17;11.00;99.90
8261;DHT22;64115;50.170;8.242;2023-04-15T08:50:46;10.90;99.90
8261;DHT22;64115;50.170;8.242;2023-04-15T08:53:14;11.00;99.90
8261;DHT22;64115;50.170;8.242;2023-04-15T08:55:43;10.90;99.90
8261;DHT22;64115;50.170;8.242;2023-04-15T08:58:11;10.50;99.90
8261;DHT22;64115;50.170;8.242;2023-04-15T09:00:38;10.50;99.90
8261;DHT22;64115;50.170;8.242;2023-04-15T09:03:06;10.40;99.90
8261;DHT22;64115;50.170;8.242;2023-04-15T09:05:34;10.30;99.90
8261;DHT22;64115;50.170;8.242;2023-04-15T09:08:04;10.30;99.90
8261;DHT22;64115;50.170;8.242;2023-04-15T09:10:32;10.30;99.90
8261;DHT22;64115;50.170;8.242;2023-04-15T09:12:59;10.40;99.90
8261;DHT22;64115;50.170;8.242;2023-04-15T09:15:27;10.30;99.90
8261;DHT22;64115;50.170;8.242;2023-04-15T09:17:55;10.20;99.90
8261;DHT22;64115;50.170;8.242;2023-04-15T09:20:22;10.30;99.90
8261;DHT22;64115;50.170;8.242;2023-04-15T09:22:50;10.40;99.90
8261;DHT22;64115;50.170;8.242;2023-04-15T09:25:31;10.30;99.90
8261;DHT22;64115;50.170;8.242;2023-04-15T09:28:00;10.30;99.90
8261;DHT22;64115;50.170;8.242;2023-04-15T09:30:27;10.30;99.90
8261;DHT22;64115;50.170;8.242;2023-04-15T09:32:56;10.40;99.90
8261;DHT22;64115;50.170;8.242;2023-04-15T09:35:25;10.60;99.90
8261;DHT22;64115;50.170;8.242;2023-04-15T09:37:53;10.70;99.90
8261;DHT22;64115;50.170;8.242;2023-04-15T09:40:36;10.50;99.90
8261;DHT22;64115;50.170;8.242;2023-04-15T09:43:04;10.60;99.90
8261;DHT22;64115;50.170;8.242;2023-04-15T09:45:33;10.80;99.90
8261;DHT22;64115;50.170;8.242;2023-04-15T09:48:14;11.00;99.90
8261;DHT22;64115;50.170;8.242;2023-04-15T09:50:42;11.30;99.90
8261;DHT22;64115;50.170;8.242;2023-04-15T09:53:10;11.40;99.90
8261;DHT22;64115;50.170;8.242;2023-04-15T09:55:39;11.50;99.90
8261;DHT22;64115;50.170;8.242;2023-04-15T09:58:16;11.60;99.90
8261;DHT22;64115;50.170;8.242;2023-04-15T10:00:46;11.50;99.90
8261;DHT22;64115;50.170;8.242;2023-04-15T10:03:14;11.60;99.90
8261;DHT22;64115;50.170;8.242;2023-04-15T10:05:43;11.60;99.90
8261;DHT22;64115;50.170;8.242;2023-04-15T10:08:12;11.30;99.90
8261;DHT22;64115;50.170;8.242;2023-04-15T10:10:40;10.90;99.90
8261;DHT22;64115;50.170;8.242;2023-04-15T10:13:08;11.00;99.90
8261;DHT22;64115;50.170;8.242;2023-04-15T10:15:36;11.10;99.90
8261;DHT22;64115;50.170;8.242;2023-04-15T10:18:04;10.90;99.90
8261;DHT22;64115;50.170;8.242;2023-04-15T10:20:34;10.80;99.90
8261;DHT22;64115;50.170;8.242;2023-04-15T10:23:02;10.90;99.90
8261;DHT22;64115;50.170;8.242;2023-04-15T10:25:30;10.80;99.90
8261;DHT22;64115;50.170;8.242;2023-04-15T10:28:01;10.80;99.90
8261;DHT22;64115;50.170;8.242;2023-04-15T10:30:30;10.80;99.90
8261;DHT22;64115;50.170;8.242;2023-04-15T10:32:59;10.90;99.90
8261;DHT22;64115;50.170;8.242;2023-04-15T10:35:28;10.80;99.90
8261;DHT22;64115;50.170;8.242;2023-04-15T10:37:55;10.70;99.90
8261;DHT22;64115;50.170;8.242;2023-04-15T10:40:29;10.60;99.90
8261;DHT22;64115;50.170;8.242;2023-04-15T10:43:00;10.60;99.90
8261;DHT22;64115;50.170;8.242;2023-04-15T10:45:34;10.70;99.90
8261;DHT22;64115;50.170;8.242;2023-04-15T10:48:03;11.00;99.90
8261;DHT22;64115;50.170;8.242;2023-04-15T10:50:30;11.10;99.90
8261;DHT22;64115;50.170;8.242;2023-04-15T10:52:58;10.90;99.90
8261;DHT22;64115;50.170;8.242;2023-04-15T10:55:31;10.70;99.90
8261;DHT22;64115;50.170;8.242;2023-04-15T10:58:00;10.90;99.90
8261;DHT22;64115;50.170;8.242;2023-04-15T11:00:29;11.10;99.90
8261;DHT22;64115;50.170;8.242;2023-04-15T11:02:58;11.30;99.90
8261;DHT22;64115;50.170;8.242;2023-04-15T11:08:52;11.30;99.90
8261;DHT22;64115;50.170;8.242;2023-04-15T11:11:19;11.30;99.90
8261;DHT22;64115;50.170;8.242;2023-04-15T11:13:49;11.40;99.90
8261;DHT22;64115;50.170;8.242;2023-04-15T11:16:17;11.30;99.90
8261;DHT22;64115;50.170;8.242;2023-04-15T11:18:52;11.30;99.90
8261;DHT22;64115;50.170;8.242;2023-04-15T11:21:23;11.40;99.90
8261;DHT22;64115;50.170;8.242;2023-04-15T11:23:52;11.70;99.90
8261;DHT22;64115;50.170;8.242;2023-04-15T11:26:25;12.00;99.90
8261;DHT22;64115;50.170;8.242;2023-04-15T11:28:53;12.10;99.90
8261;DHT22;64115;50.170;8.242;2023-04-15T11:31:21;12.10;99.90
8261;DHT22;64115;50.170;8.242;2023-04-15T11:33:54;11.90;99.90
8261;DHT22;64115;50.170;8.242;2023-04-15T11:36:23;11.70;99.90
8261;DHT22;64115;50.170;8.242;2023-04-15T11:38:52;11.50;99.90
8261;DHT22;64115;50.170;8.242;2023-04-15T11:41:19;11.30;99.90
8261;DHT22;64115;50.170;8.242;2023-04-15T11:43:47;11.30;99.90
8261;DHT22;64115;50.170;8.242;2023-04-15T11:46:16;11.30;99.90
8261;DHT22;64115;50.170;8.242;2023-04-15T11:48:44;11.60;99.90
8261;DHT22;64115;50.170;8.242;2023-04-15T11:51:12;11.70;99.90
8261;DHT22;64115;50.170;8.242;2023-04-15T11:53:41;11.80;99.90
8261;DHT22;64115;50.170;8.242;2023-04-15T11:56:16;11.80;99.90
8261;DHT22;64115;50.170;8.242;2023-04-15T11:58:44;11.70;99.90
8261;DHT22;64115;50.170;8.242;2023-04-15T12:01:11;11.70;99.90
8261;DHT22;64115;50.170;8.242;2023-04-15T12:03:42;11.80;99.90
8261;DHT22;64115;50.170;8.242;2023-04-15T12:06:14;11.50;99.90
8261;DHT22;64115;50.170;8.242;2023-04-15T12:08:59;11.10;99.90
8261;DHT22;64115;50.170;8.242;2023-04-15T12:11:29;10.60;99.90
8261;DHT22;64115;50.170;8.242;2023-04-15T12:13:58;10.30;99.90
8261;DHT22;64115;50.170;8.242;2023-04-15T12:16:28;10.10;99.90
8261;DHT22;64115;50.170;8.242;2023-04-15T12:18:58;10.10;99.90
8261;DHT22;64115;50.170;8.242;2023-04-15T12:21:32;10.10;99.90
8261;DHT22;64115;50.170;8.242;2023-04-15T12:24:01;10.10;99.90
8261;DHT22;64115;50.170;8.242;2023-04-15T12:26:33;10.00;99.90
8261;DHT22;64115;50.170;8.242;2023-04-15T12:29:01;10.10;99.90
8261;DHT22;64115;50.170;8.242;2023-04-15T12:31:28;10.40;99.90
8261;DHT22;64115;50.170;8.242;2023-04-15T12:33:57;10.70;99.90
8261;DHT22;64115;50.170;8.242;2023-04-15T12:36:25;10.70;99.90
8261;DHT22;64115;50.170;8.242;2023-04-15T12:38:53;10.70;99.90
8261;DHT22;64115;50.170;8.242;2023-04-15T12:41:20;10.70;99.90
8261;DHT22;64115;50.170;8.242;2023-04-15T12:43:49;10.30;99.90
8261;DHT22;64115;50.170;8.242;2023-04-15T12:46:16;10.00;99.90
8261;DHT22;64115;50.170;8.242;2023-04-15T12:48:43;9.80;99.90
8261;DHT22;64115;50.170;8.242;2023-04-15T12:51:12;9.70;99.90
8261;DHT22;64115;50.170;8.242;2023-04-15T12:53:39;9.60;99.90
8261;DHT22;64115;50.170;8.242;2023-04-15T12:56:06;9.30;99.90
8261;DHT22;64115;50.170;8.242;2023-04-15T12:58:33;9.10;99.90
8261;DHT22;64115;50.170;8.242;2023-04-15T13:01:00;9.00;99.90
8261;DHT22;64115;50.170;8.242;2023-04-15T13:03:28;9.10;99.90
8261;DHT22;64115;50.170;8.242;2023-04-15T13:05:55;9.10;99.90
8261;DHT22;64115;50.170;8.242;2023-04-15T13:08:23;9.20;99.90
8261;DHT22;64115;50.170;8.242;2023-04-15T13:10:50;9.00;99.90
8261;DHT22;64115;50.170;8.242;2023-04-15T13:13:18;9.10;99.90
8261;DHT22;64115;50.170;8.242;2023-04-15T13:15:45;9.00;99.90
8261;DHT22;64115;50.170;8.242;2023-04-15T13:18:12;9.00;99.90
8261;DHT22;64115;50.170;8.242;2023-04-15T13:20:39;9.00;99.90
8261;DHT22;64115;50.170;8.242;2023-04-15T13:23:06;9.00;99.90
8261;DHT22;64115;50.170;8.242;2023-04-15T13:25:35;9.00;99.90
8261;DHT22;64115;50.170;8.242;2023-04-15T13:28:01;8.90;99.90
8261;DHT22;64115;50.170;8.242;2023-04-15T13:30:29;8.80;99.90
8261;DHT22;64115;50.170;8.242;2023-04-15T13:32:56;8.90;99.90
8261;DHT22;64115;50.170;8.242;2023-04-15T13:35:23;8.70;99.90
8261;DHT22;64115;50.170;8.242;2023-04-15T13:37:51;8.70;99.90
8261;DHT22;64115;50.170;8.242;2023-04-15T13:40:20;8.70;99.90
8261;DHT22;64115;50.170;8.242;2023-04-15T13:42:49;8.50;99.90
8261;DHT22;64115;50.170;8.242;2023-04-15T13:45:16;8.30;99.90
8261;DHT22;64115;50.170;8.242;2023-04-15T13:47:43;8.20;99.90
8261;DHT22;64115;50.170;8.242;2023-04-15T13:50:10;8.10;99.90
8261;DHT22;64115;50.170;8.242;2023-04-15T13:52:38;8.10;99.90
8261;DHT22;64115;50.170;8.242;2023-04-15T13:55:06;8.00;99.90
8261;DHT22;64115;50.170;8.242;2023-04-15T13:57:33;8.00;99.90
8261;DHT22;64115;50.170;8.242;2023-04-15T14:00:02;8.00;99.90
8261;DHT22;64115;50.170;8.242;2023-04-15T14:02:30;8.00;99.90
8261;DHT22;64115;50.170;8.242;2023-04-15T14:04:57;7.90;99.90
8261;DHT22;64115;50.170;8.242;2023-04-15T14:07:24;8.00;99.90
8261;DHT22;64115;50.170;8.242;2023-04-15T14:09:51;8.00;99.90
8261;DHT22;64115;50.170;8.242;2023-04-15T14:12:19;8.20;99.90
8261;DHT22;64115;50.170;8.242;2023-04-15T14:14:46;8.30;99.90
8261;DHT22;64115;50.170;8.242;2023-04-15T14:17:15;8.50;99.90
8261;DHT22;64115;50.170;8.242;2023-04-15T14:19:42;8.70;99.90
8261;DHT22;64115;50.170;8.242;2023-04-15T14:22:09;8.80;99.90
8261;DHT22;64115;50.170;8.242;2023-04-15T14:24:36;8.90;99.90
8261;DHT22;64115;50.170;8.242;2023-04-15T14:27:03;8.80;99.90
8261;DHT22;64115;50.170;8.242;2023-04-15T14:29:30;8.70;99.90
8261;DHT22;64115;50.170;8.242;2023-04-15T14:31:57;8.70;99.90
8261;DHT22;64115;50.170;8.242;2023-04-15T14:34:26;8.60;99.90
8261;DHT22;64115;50.170;8.242;2023-04-15T14:36:53;8.40;99.90
8261;DHT22;64115;50.170;8.242;2023-04-15T14:39:20;8.30;99.90
8261;DHT22;64115;50.170;8.242;2023-04-15T14:41:48;8.20;99.90
8261;DHT22;64115;50.170;8.242;2023-04-15T14:44:16;8.20;99.90
8261;DHT22;64115;50.170;8.242;2023-04-15T14:46:43;8.10;99.90
8261;DHT22;64115;50.170;8.242;2023-04-15T14:49:10;8.10;99.90
8261;DHT22;64115;50.170;8.242;2023-04-15T14:51:38;7.90;99.90
8261;DHT22;64115;50.170;8.242;2023-04-15T14:54:05;7.80;99.90
8261;DHT22;64115;50.170;8.242;2023-04-15T14:56:32;7.90;99.90
8261;DHT22;64115;50.170;8.242;2023-04-15T14:58:59;8.00;99.90
8261;DHT22;64115;50.170;8.242;2023-04-15T15:01:27;8.00;99.90
8261;DHT22;64115;50.170;8.242;2023-04-15T15:03:54;7.90;99.90
8261;DHT22;64115;50.170;8.242;2023-04-15T15:06:21;7.90;99.90
8261;DHT22;64115;50.170;8.242;2023-04-15T15:08:50;7.90;99.90
8261;DHT22;64115;50.170;8.242;2023-04-15T15:11:17;7.80;99.90
8261;DHT22;64115;50.170;8.242;2023-04-15T15:13:45;7.80;99.90
8261;DHT22;64115;50.170;8.242;2023-04-15T15:16:12;7.70;99.90
8261;DHT22;64115;50.170;8.242;2023-04-15T15:18:39;7.60;99.90
8261;DHT22;64115;50.170;8.242;2023-04-15T15:21:06;7.60;99.90
8261;DHT22;64115;50.170;8.242;2023-04-15T15:23:34;7.60;99.90
8261;DHT22;64115;50.170;8.242;2023-04-15T15:26:03;7.60;99.90
8261;DHT22;64115;50.170;8.242;2023-04-15T15:28:30;7.60;99.90
8261;DHT22;64115;50.170;8.242;2023-04-15T15:30:57;7.60;99.90
8261;DHT22;64115;50.170;8.242;2023-04-15T15:33:24;7.40;99.90
8261;DHT22;64115;50.170;8.242;2023-04-15T15:35:51;7.30;99.90
8261;DHT22;64115;50.170;8.242;2023-04-15T15:38:18;7.40;99.90
8261;DHT22;64115;50.170;8.242;2023-04-15T15:40:46;7.30;99.90
8261;DHT22;64115;50.170;8.242;2023-04-15T15:43:14;7.40;99.90
8261;DHT22;64115;50.170;8.242;2023-04-15T15:45:41;7.40;99.90
8261;DHT22;64115;50.170;8.242;2023-04-15T15:48:09;7.30;99.90
8261;DHT22;64115;50.170;8.242;2023-04-15T15:50:36;7.30;99.90
8261;DHT22;64115;50.170;8.242;2023-04-15T15:53:03;7.20;99.90
8261;DHT22;64115;50.170;8.242;2023-04-15T15:55:30;7.10;99.90
8261;DHT22;64115;50.170;8.242;2023-04-15T15:57:57;7.10;99.90
8261;DHT22;64115;50.170;8.242;2023-04-15T16:00:26;7.10;99.90
8261;DHT22;64115;50.170;8.242;2023-04-15T16:02:54;7.10;99.90
8261;DHT22;64115;50.170;8.242;2023-04-15T16:05:22;7.10;99.90